Time;durP1;ratioP1;P1;durP2;ratioP2;P2;SDS_P1;SDS_P2;PMS_P1;PMS_P2;Temp;Humidity;BMP_temperature;BMP_pressure;BME280_temperature;BME280_humidity;BME280_pressure;Samples;Min_cycle;Max_cycle;Signal;HPM_P1;HPM_P2
2022/10/30 00:02:07;;;;;;;14.80;14.20;;;14.00;94.90;;;;;;4873885;29;20457;-75
2022/10/30 00:04:33;;;;;;;14.73;14.13;;;13.90;94.90;;;;;;4874616;29;20039;-76
2022/10/30 00:06:59;;;;;;;15.20;14.60;;;14.00;94.90;;;;;;4874868;29;20037;-75
2022/10/30 00:09:24;;;;;;;14.18;13.57;;;14.00;94.90;;;;;;4874593;29;20045;-78
2022/10/30 00:11:50;;;;;;;15.77;15.07;;;13.90;94.80;;;;;;4874503;29;20037;-77
2022/10/30 00:14:17;;;;;;;15.57;14.88;;;13.90;94.80;;;;;;4874411;29;20037;-77
2022/10/30 00:16:42;;;;;;;15.27;14.57;;;13.90;94.80;;;;;;4857930;29;20040;-77
2022/10/30 00:19:08;;;;;;;15.80;15.10;;;13.90;94.90;;;;;;4874533;29;20033;-78
2022/10/30 00:21:34;;;;;;;14.27;13.68;;;13.90;94.90;;;;;;4874483;29;20168;-77
2022/10/30 00:24:00;;;;;;;15.20;14.60;;;13.90;94.90;;;;;;4874319;29;20041;-78
2022/10/30 00:26:26;;;;;;;14.43;13.82;;;13.90;94.90;;;;;;4874286;29;20044;-78
2022/10/30 00:28:54;;;;;;;14.57;13.98;;;14.00;94.90;;;;;;4857811;29;20041;-77
2022/10/30 00:31:20;;;;;;;14.02;13.43;;;14.00;94.90;;;;;;4857446;29;20397;-78
2022/10/30 00:33:53;;;;;;;13.93;13.32;;;14.00;94.90;;;;;;4873987;29;20041;-78
2022/10/30 00:36:19;;;;;;;13.93;13.32;;;14.00;94.90;;;;;;4874319;29;20182;-77
2022/10/30 00:38:45;;;;;;;;;;;14.00;94.90;;;;;;4858004;29;20032;-77
2022/10/30 00:41:20;;;;;;;12.80;12.20;;;14.00;94.90;;;;;;4874205;29;20305;-77
2022/10/30 00:43:46;;;;;;;13.02;12.43;;;14.00;94.80;;;;;;4874005;29;20065;-78
2022/10/30 00:46:32;;;;;;;14.10;13.50;;;14.00;94.90;;;;;;4874649;29;20021;-78
2022/10/30 00:49:16;;;;;;;13.55;12.95;;;14.00;94.90;;;;;;4874211;29;20535;-77
2022/10/30 00:51:49;;;;;;;13.05;12.45;;;14.00;95.10;;;;;;4874059;29;20509;-77
2022/10/30 00:54:17;;;;;;;15.23;14.60;;;14.00;94.90;;;;;;4874038;29;20033;-77
2022/10/30 00:56:44;;;;;;;15.10;14.50;;;14.00;94.90;;;;;;4873715;29;20053;-77
2022/10/30 00:59:14;;;;;;;15.18;14.55;;;14.00;94.90;;;;;;4873817;29;20112;-73
2022/10/30 01:01:43;;;;;;;14.55;13.95;;;14.00;94.90;;;;;;4873733;29;20040;-68
2022/10/30 01:04:10;;;;;;;16.27;15.57;;;14.00;94.90;;;;;;4873489;29;20029;-73
2022/10/30 01:06:41;;;;;;;15.27;14.65;;;14.00;94.80;;;;;;4873836;29;20050;-73
2022/10/30 01:09:06;;;;;;;15.80;15.10;;;14.00;94.90;;;;;;4874004;29;20033;-74
2022/10/30 01:11:32;;;;;;;13.68;13.07;;;14.00;94.90;;;;;;4873752;29;20437;-73
2022/10/30 01:14:01;;;;;;;17.77;17.08;;;14.00;94.90;;;;;;4857201;29;20613;-74
2022/10/30 01:16:33;;;;;;;16.85;16.15;;;14.00;94.80;;;;;;4873748;29;20530;-73
2022/10/30 01:19:20;;;;;;;15.90;15.20;;;14.00;94.90;;;;;;4873978;29;20029;-73
2022/10/30 01:22:24;;;;;;;17.30;16.60;;;14.00;94.90;;;;;;4873949;29;20482;-77
2022/10/30 01:25:15;;;;;;;16.05;15.35;;;14.10;94.90;;;;;;4873482;29;20566;-78
2022/10/30 01:27:41;;;;;;;14.18;13.57;;;14.00;94.80;;;;;;4844690;29;20075;-77
2022/10/30 01:30:12;;;;;;;15.13;14.52;;;14.00;94.90;;;;;;4873640;29;20447;-77
2022/10/30 01:32:52;;;;;;;15.60;14.90;;;14.10;94.90;;;;;;4873509;29;20062;-78
2022/10/30 01:35:27;;;;;;;14.55;13.95;;;14.00;94.80;;;;;;4873433;29;20137;-77
2022/10/30 01:38:37;;;;;;;14.80;14.20;;;14.00;94.80;;;;;;4874701;29;20084;-77
2022/10/30 01:41:03;;;;;;;14.50;13.90;;;14.10;94.90;;;;;;4786139;29;20050;-78
2022/10/30 01:43:29;;;;;;;14.13;13.52;;;14.10;94.90;;;;;;4801478;29;20496;-78
2022/10/30 01:46:04;;;;;;;;;;;14.00;94.90;;;;;;4815880;29;20528;-78
2022/10/30 01:48:48;;;;;;;14.30;13.70;;;14.00;94.90;;;;;;4877261;29;19912;-78
2022/10/30 01:51:32;;;;;;;12.98;12.38;;;14.00;94.80;;;;;;4877070;29;20040;-77
2022/10/30 01:54:22;;;;;;;14.18;13.57;;;14.10;94.90;;;;;;4876889;29;20529;-78
2022/10/30 01:56:59;;;;;;;14.80;14.20;;;14.10;94.90;;;;;;4876825;29;20070;-78
2022/10/30 02:00:00;;;;;;;14.30;13.70;;;14.10;94.80;;;;;;4876945;29;20056;-75
2022/10/30 02:02:26;;;;;;;13.98;13.38;;;14.10;94.90;;;;;;4821154;29;20089;-77
2022/10/30 02:04:52;;;;;;;13.52;12.93;;;14.10;94.80;;;;;;4844822;29;20097;-78
2022/10/30 02:07:18;;;;;;;14.80;14.20;;;14.10;94.90;;;;;;4877005;29;20489;-77
2022/10/30 02:09:44;;;;;;;13.18;12.57;;;14.10;94.90;;;;;;4876800;29;20029;-78
2022/10/30 02:12:10;;;;;;;14.32;13.73;;;14.10;94.90;;;;;;4876594;29;20033;-77
2022/10/30 02:14:44;;;;;;;13.80;13.20;;;14.10;94.90;;;;;;4844706;29;20029;-77
2022/10/30 02:17:10;;;;;;;15.25;14.63;;;14.10;94.90;;;;;;4859929;29;20044;-78
2022/10/30 02:19:36;;;;;;;13.88;13.27;;;14.20;94.90;;;;;;4876633;29;20025;-78
2022/10/30 02:22:02;;;;;;;13.75;13.15;;;14.10;94.90;;;;;;4860239;29;20437;-78
2022/10/30 02:24:30;;;;;;;14.30;13.70;;;14.20;94.90;;;;;;4876525;29;20066;-78
2022/10/30 02:26:56;;;;;;;14.05;13.45;;;14.20;94.90;;;;;;4876634;29;20037;-78
2022/10/30 02:29:22;;;;;;;15.15;14.55;;;14.20;94.90;;;;;;4876592;29;20033;-77
2022/10/30 02:31:48;;;;;;;12.70;12.10;;;14.20;94.90;;;;;;4876530;29;20044;-77
2022/10/30 02:34:13;;;;;;;14.80;14.20;;;14.20;94.90;;;;;;4876480;29;20361;-77
2022/10/30 02:36:39;;;;;;;14.52;13.93;;;14.20;94.90;;;;;;4876435;29;20092;-77
2022/10/30 02:39:05;;;;;;;14.60;14.00;;;14.20;94.90;;;;;;4876357;29;20108;-78
2022/10/30 02:41:31;;;;;;;;;;;14.30;94.90;;;;;;4876628;29;20037;-78
2022/10/30 02:43:57;;;;;;;16.33;15.63;;;14.30;95.00;;;;;;4876168;29;19908;-78
2022/10/30 02:46:23;;;;;;;13.90;13.30;;;14.30;94.90;;;;;;4859574;29;20032;-78
2022/10/30 02:48:49;;;;;;;15.82;15.13;;;14.30;94.90;;;;;;4858683;29;20386;-78
2022/10/30 02:51:15;;;;;;;14.85;14.25;;;14.30;94.80;;;;;;4858911;29;20055;-78
2022/10/30 02:53:41;;;;;;;15.18;14.57;;;14.30;94.80;;;;;;4859568;29;20068;-77
2022/10/30 02:56:09;;;;;;;16.63;15.93;;;14.30;94.80;;;;;;4875747;29;20078;-78
2022/10/30 02:58:35;;;;;;;13.95;13.35;;;14.20;94.80;;;;;;4859223;29;20494;-78
2022/10/30 03:01:05;;;;;;;;;;;14.20;94.80;;;;;;4876500;29;20108;-78
2022/10/30 03:03:31;;;;;;;17.17;15.93;;;14.30;94.90;;;;;;4876103;29;19914;-78
2022/10/30 03:05:59;;;;;;;13.18;12.57;;;14.30;94.80;;;;;;4875891;29;20033;-78
2022/10/30 03:08:25;;;;;;;14.57;13.98;;;14.30;94.90;;;;;;4858834;29;20037;-78
2022/10/30 03:10:51;;;;;;;15.40;14.73;;;14.20;94.80;;;;;;4858987;29;20494;-78
2022/10/30 03:13:16;;;;;;;16.80;16.10;;;14.30;94.90;;;;;;4875570;29;20043;-78
2022/10/30 03:15:42;;;;;;;15.15;14.55;;;14.30;94.90;;;;;;4875700;29;20029;-78
2022/10/30 03:18:08;;;;;;;16.60;15.90;;;14.30;94.90;;;;;;4875533;29;20041;-77
2022/10/30 03:20:33;;;;;;;18.50;17.70;;;14.30;94.90;;;;;;4875901;29;20112;-78
2022/10/30 03:23:00;;;;;;;18.05;17.35;;;14.30;94.90;;;;;;4875590;29;20101;-75
2022/10/30 03:25:25;;;;;;;18.38;17.60;;;14.30;94.90;;;;;;4875339;29;20502;-75
2022/10/30 03:27:51;;;;;;;19.27;18.48;;;14.20;94.80;;;;;;4858836;29;20324;-75
2022/10/30 03:30:17;;;;;;;18.80;18.00;;;14.20;94.80;;;;;;4858461;29;20386;-75
2022/10/30 03:32:43;;;;;;;19.05;18.25;;;14.20;94.80;;;;;;4875463;29;20083;-74
2022/10/30 03:35:08;;;;;;;19.38;18.58;;;14.20;94.90;;;;;;4875047;29;20529;-75
2022/10/30 03:37:34;;;;;;;18.75;17.95;;;14.20;94.80;;;;;;4875165;29;20548;-79
2022/10/30 03:40:00;;;;;;;20.65;19.85;;;14.20;94.90;;;;;;4875127;29;20056;-77
2022/10/30 03:42:26;;;;;;;21.35;20.48;;;14.20;94.90;;;;;;4875243;29;20120;-76
2022/10/30 03:44:51;;;;;;;20.20;19.40;;;14.20;94.90;;;;;;4858289;29;20045;-75
2022/10/30 03:47:17;;;;;;;19.50;18.70;;;14.20;94.90;;;;;;4858455;29;20434;-75
2022/10/30 03:49:42;;;;;;;17.80;17.10;;;14.20;94.90;;;;;;4874979;29;20052;-75
2022/10/30 03:52:08;;;;;;;16.88;16.17;;;14.20;95.00;;;;;;4875044;29;20101;-75
2022/10/30 03:54:34;;;;;;;16.73;16.02;;;14.30;95.00;;;;;;4874925;29;20036;-75
2022/10/30 03:56:59;;;;;;;17.98;17.27;;;14.30;95.20;;;;;;4858408;29;20049;-75
2022/10/30 03:59:25;;;;;;;17.33;16.63;;;14.40;95.00;;;;;;4858388;29;20041;-75
2022/10/30 04:01:51;;;;;;;17.67;16.98;;;14.40;95.00;;;;;;4874575;29;20108;-75
2022/10/30 04:04:16;;;;;;;19.02;18.23;;;14.50;94.90;;;;;;4874878;29;20037;-75
2022/10/30 04:06:42;;;;;;;18.63;17.83;;;14.60;94.90;;;;;;4874876;29;20036;-75
2022/10/30 04:09:08;;;;;;;19.40;18.60;;;14.60;94.90;;;;;;4874724;29;20131;-75
2022/10/30 04:11:33;;;;;;;18.08;17.38;;;14.60;94.90;;;;;;4874440;29;20077;-76
2022/10/30 04:13:59;;;;;;;20.63;19.83;;;14.60;94.90;;;;;;4874629;29;20037;-75
2022/10/30 04:16:25;;;;;;;21.80;20.90;;;14.70;94.90;;;;;;4874550;29;20061;-76
2022/10/30 04:18:50;;;;;;;20.17;19.38;;;14.70;94.80;;;;;;4874590;29;20402;-75
2022/10/30 04:21:16;;;;;;;19.30;18.50;;;14.60;94.80;;;;;;4857821;29;20029;-75
2022/10/30 04:23:42;;;;;;;20.77;19.98;;;14.60;94.90;;;;;;4874364;29;20055;-75
2022/10/30 04:26:07;;;;;;;18.85;18.05;;;14.70;94.90;;;;;;4874009;29;20108;-76
2022/10/30 04:28:33;;;;;;;21.42;20.52;;;14.70;94.90;;;;;;4874534;29;20125;-76
2022/10/30 04:30:59;;;;;;;19.60;18.80;;;14.70;94.90;;;;;;4874430;29;20354;-76
2022/10/30 04:33:24;;;;;;;17.15;16.45;;;14.60;94.90;;;;;;4874478;29;20512;-76
2022/10/30 04:35:50;;;;;;;20.05;19.25;;;14.60;94.90;;;;;;4874589;29;20029;-76
2022/10/30 04:38:18;;;;;;;18.00;17.30;;;14.70;94.90;;;;;;4874328;29;20281;-75
2022/10/30 04:40:44;;;;;;;16.70;16.00;;;14.70;94.90;;;;;;4874140;29;20137;-77
2022/10/30 04:43:11;;;;;;;16.52;15.82;;;14.70;95.00;;;;;;4874169;29;20116;-77
2022/10/30 04:45:38;;;;;;;16.65;15.95;;;14.70;95.20;;;;;;4857412;29;20045;-78
2022/10/30 04:48:15;;;;;;;16.63;15.93;;;14.70;95.00;;;;;;4842223;29;20696;-75
2022/10/30 04:50:42;;;;;;;17.00;16.30;;;14.80;95.00;;;;;;4874153;29;20032;-75
2022/10/30 04:53:16;;;;;;;16.77;16.08;;;14.80;95.00;;;;;;4874083;29;20048;-75
2022/10/30 04:55:43;;;;;;;18.00;17.30;;;14.80;95.00;;;;;;4873962;29;20093;-75
2022/10/30 04:58:09;;;;;;;18.35;17.58;;;14.80;95.00;;;;;;4874118;29;20113;-75
2022/10/30 05:00:36;;;;;;;18.73;17.92;;;14.80;94.90;;;;;;4874005;29;20084;-75
2022/10/30 05:03:02;;;;;;;18.35;17.58;;;14.80;94.90;;;;;;4874126;29;20017;-75
2022/10/30 05:05:29;;;;;;;20.85;20.05;;;14.70;94.80;;;;;;4874040;29;20024;-75
2022/10/30 05:07:54;;;;;;;17.23;16.52;;;14.60;94.70;;;;;;4873952;29;20113;-75
2022/10/30 05:10:20;;;;;;;15.52;14.82;;;14.50;94.70;;;;;;4873840;29;20104;-75
2022/10/30 05:12:46;;;;;;;14.02;13.43;;;14.40;94.70;;;;;;4875093;29;20092;-75
2022/10/30 05:15:13;;;;;;;14.30;13.70;;;14.30;94.80;;;;;;4877787;29;20033;-75
2022/10/30 05:17:39;;;;;;;13.93;13.32;;;14.30;94.80;;;;;;4877728;29;20037;-75
2022/10/30 05:20:06;;;;;;;13.82;13.23;;;14.20;94.80;;;;;;4877728;29;20390;-75
2022/10/30 05:22:32;;;;;;;12.70;12.10;;;14.20;94.90;;;;;;4877581;29;20033;-75
2022/10/30 05:24:58;;;;;;;13.10;12.50;;;14.20;94.90;;;;;;4860974;29;20040;-75
2022/10/30 05:27:24;;;;;;;10.85;10.35;;;14.20;94.90;;;;;;4877626;29;20508;-75
2022/10/30 05:29:49;;;;;;;10.18;9.68;;;14.20;94.90;;;;;;4877656;29;20041;-75
2022/10/30 05:32:15;;;;;;;10.30;9.80;;;14.20;94.90;;;;;;4877507;29;20047;-75
2022/10/30 05:34:41;;;;;;;10.00;9.50;;;14.20;94.90;;;;;;4878039;29;20025;-75
2022/10/30 05:37:06;;;;;;;11.05;10.55;;;14.20;94.80;;;;;;4860928;29;20124;-75
2022/10/30 05:39:32;;;;;;;11.07;10.57;;;14.20;94.80;;;;;;4860871;29;20091;-75
2022/10/30 05:41:58;;;;;;;11.85;11.35;;;14.10;94.80;;;;;;4877574;29;20065;-75
2022/10/30 05:44:23;;;;;;;13.25;12.65;;;14.00;94.70;;;;;;4877315;29;20112;-75
2022/10/30 05:46:49;;;;;;;13.00;12.40;;;14.00;94.70;;;;;;4877447;29;20446;-75
2022/10/30 05:49:16;;;;;;;14.45;13.85;;;13.90;94.70;;;;;;4860711;29;20037;-75
2022/10/30 05:51:42;;;;;;;13.27;12.68;;;13.80;94.70;;;;;;4876767;29;20051;-74
2022/10/30 05:54:09;;;;;;;12.07;11.57;;;13.70;94.70;;;;;;4877105;29;20032;-75
2022/10/30 05:56:34;;;;;;;11.63;11.13;;;13.60;94.80;;;;;;4876841;29;20593;-75
2022/10/30 05:59:00;;;;;;;11.57;11.07;;;13.60;94.80;;;;;;4877274;29;20025;-75
2022/10/30 06:01:26;;;;;;;10.98;10.48;;;13.50;94.80;;;;;;4877123;29;20462;-74
2022/10/30 06:03:51;;;;;;;11.90;11.40;;;13.50;94.80;;;;;;4877080;29;20089;-75
2022/10/30 06:06:17;;;;;;;11.30;10.80;;;13.40;94.80;;;;;;4876952;29;20088;-74
2022/10/30 06:08:43;;;;;;;10.57;10.07;;;13.40;94.90;;;;;;4876831;29;20065;-75
2022/10/30 06:11:08;;;;;;;10.60;10.10;;;13.40;94.90;;;;;;4876666;29;20491;-75
2022/10/30 06:13:34;;;;;;;11.35;10.85;;;13.40;94.90;;;;;;4877004;29;20033;-75
2022/10/30 06:16:00;;;;;;;11.15;10.65;;;13.40;94.90;;;;;;4876539;29;20402;-74
2022/10/30 06:18:25;;;;;;;11.70;11.20;;;13.40;94.90;;;;;;4859805;29;20310;-74
2022/10/30 06:20:53;;;;;;;10.20;9.70;;;13.40;94.90;;;;;;4876549;29;20037;-75
2022/10/30 06:23:18;;;;;;;10.80;10.30;;;13.40;94.80;;;;;;4859261;29;20374;-74
2022/10/30 06:25:44;;;;;;;10.70;10.20;;;13.30;94.80;;;;;;4876583;29;20048;-74
2022/10/30 06:28:12;;;;;;;11.40;10.90;;;13.30;94.80;;;;;;4859759;29;20077;-75
2022/10/30 06:30:38;;;;;;;10.50;10.00;;;13.30;94.80;;;;;;4876390;29;20241;-75
2022/10/30 06:33:04;;;;;;;11.85;11.35;;;13.30;94.80;;;;;;4876649;29;20081;-74
2022/10/30 06:35:30;;;;;;;;;;;13.30;94.80;;;;;;4860210;29;20044;-74
2022/10/30 06:37:58;;;;;;;12.00;11.50;;;13.20;94.80;;;;;;4876315;29;19912;-74
2022/10/30 06:40:25;;;;;;;11.30;10.80;;;13.20;94.70;;;;;;4876310;29;20406;-74
2022/10/30 06:42:52;;;;;;;11.45;10.95;;;13.10;94.70;;;;;;4876371;29;20061;-74
2022/10/30 06:45:19;;;;;;;12.00;11.50;;;13.10;94.70;;;;;;4859314;29;20043;-75
2022/10/30 06:47:46;;;;;;;11.75;11.25;;;13.00;94.70;;;;;;4876146;29;20362;-74
2022/10/30 06:50:15;;;;;;;12.80;12.20;;;13.00;94.70;;;;;;4875964;29;20040;-74
2022/10/30 06:52:41;;;;;;;14.43;13.82;;;13.00;94.70;;;;;;4876055;29;20033;-73
2022/10/30 06:55:08;;;;;;;14.40;13.80;;;13.00;94.70;;;;;;4876034;29;20039;-73
2022/10/30 06:57:34;;;;;;;14.50;13.90;;;13.00;94.80;;;;;;4875852;29;20545;-73
2022/10/30 06:59:59;;;;;;;13.25;12.65;;;13.00;94.80;;;;;;4876162;29;20116;-73
2022/10/30 07:02:25;;;;;;;15.35;14.68;;;13.00;94.80;;;;;;4875942;29;20037;-73
2022/10/30 07:04:51;;;;;;;15.90;15.20;;;13.00;94.80;;;;;;4875784;29;20033;-73
2022/10/30 07:07:17;;;;;;;16.05;15.35;;;12.90;94.70;;;;;;4875893;29;20483;-73
2022/10/30 07:09:44;;;;;;;;;;;12.90;94.70;;;;;;4876217;29;20037;-73
2022/10/30 07:12:10;;;;;;;;;;;12.90;94.70;;;;;;4876442;29;19963;-73
2022/10/30 07:14:36;;;;;;;15.15;14.55;;;12.90;94.70;;;;;;4875594;29;20356;-73
2022/10/30 07:17:01;;;;;;;15.43;14.75;;;13.00;94.80;;;;;;4843402;29;20435;-77
2022/10/30 07:19:27;;;;;;;17.48;16.77;;;13.00;94.80;;;;;;4843419;29;20048;-78
2022/10/30 07:21:53;;;;;;;17.10;16.40;;;13.00;94.70;;;;;;4875674;29;20033;-78
2022/10/30 07:24:19;;;;;;;17.88;17.17;;;13.10;94.70;;;;;;4858776;29;20088;-78
2022/10/30 07:26:44;;;;;;;18.77;17.98;;;13.00;94.60;;;;;;4843322;29;20481;-78
2022/10/30 07:29:10;;;;;;;19.58;18.77;;;13.00;94.70;;;;;;4843455;29;20116;-77
2022/10/30 07:31:36;;;;;;;19.67;18.88;;;12.90;94.70;;;;;;4858814;29;20582;-77
2022/10/30 07:34:01;;;;;;;20.00;19.20;;;12.90;94.70;;;;;;4875294;29;20030;-77
2022/10/30 07:36:27;;;;;;;20.38;19.58;;;12.90;94.70;;;;;;4858133;29;20036;-77
2022/10/30 07:38:53;;;;;;;19.73;18.92;;;12.90;94.70;;;;;;4875133;29;20033;-78
2022/10/30 07:41:20;;;;;;;21.25;20.38;;;12.90;94.70;;;;;;4858461;29;20486;-77
2022/10/30 07:43:46;;;;;;;22.10;21.20;;;12.90;94.70;;;;;;4858447;29;20127;-78
2022/10/30 07:46:12;;;;;;;20.50;19.70;;;12.90;94.70;;;;;;4874990;29;20562;-78
2022/10/30 07:48:37;;;;;;;;;;;12.90;94.80;;;;;;4858308;29;20101;-77
2022/10/30 07:51:04;;;;;;;19.50;18.70;;;13.00;94.80;;;;;;4874721;29;19912;-78
2022/10/30 07:53:29;;;;;;;;;;;13.00;94.80;;;;;;4874970;29;20025;-78
2022/10/30 07:55:56;;;;;;;19.10;18.30;;;13.00;94.80;;;;;;4874538;29;20003;-77
2022/10/30 07:58:21;;;;;;;20.40;19.60;;;13.10;94.80;;;;;;4874776;29;20521;-77
2022/10/30 08:00:47;;;;;;;20.08;19.27;;;13.20;94.80;;;;;;4874622;29;20045;-77
2022/10/30 08:03:13;;;;;;;17.85;17.15;;;13.20;94.80;;;;;;4857829;29;20044;-77
2022/10/30 08:05:39;;;;;;;17.30;16.60;;;13.30;94.80;;;;;;4874521;29;20041;-77
2022/10/30 08:08:06;;;;;;;18.98;18.17;;;13.40;94.80;;;;;;4874462;29;20052;-77
2022/10/30 08:10:32;;;;;;;17.52;16.83;;;13.40;94.70;;;;;;4874436;29;20485;-77
2022/10/30 08:12:57;;;;;;;17.08;16.38;;;13.50;94.70;;;;;;4874597;29;20144;-78
2022/10/30 08:15:23;;;;;;;17.70;17.00;;;13.50;94.60;;;;;;4874534;29;20029;-77
2022/10/30 08:17:50;;;;;;;14.70;14.10;;;13.40;94.60;;;;;;4874502;29;20049;-77
2022/10/30 08:20:18;;;;;;;16.63;15.93;;;13.40;94.60;;;;;;4874419;29;20446;-77
2022/10/30 08:22:48;;;;;;;16.33;15.63;;;13.40;94.60;;;;;;4874243;29;20547;-78
2022/10/30 08:25:15;;;;;;;15.43;14.75;;;13.40;94.70;;;;;;4874317;29;20040;-78
2022/10/30 08:28:01;;;;;;;14.10;13.50;;;13.40;94.70;;;;;;4874439;29;20033;-78
2022/10/30 08:30:30;;;;;;;14.82;14.23;;;13.40;94.70;;;;;;4874091;29;20426;-77
2022/10/30 08:33:00;;;;;;;14.90;14.30;;;13.40;94.80;;;;;;4873907;29;20041;-78
2022/10/30 08:35:26;;;;;;;10.82;10.32;;;13.50;94.90;;;;;;4873927;29;20045;-77
2022/10/30 08:38:01;;;;;;;7.65;7.25;;;13.80;95.30;;;;;;4873985;29;20032;-77
2022/10/30 08:40:27;;;;;;;7.20;6.80;;;14.30;95.70;;;;;;4873912;29;20037;-78
2022/10/30 08:42:54;;;;;;;;;;;14.90;95.60;;;;;;4874608;29;20471;-77
2022/10/30 08:45:21;;;;;;;7.97;7.57;;;15.30;95.30;;;;;;4857127;29;19919;-77
2022/10/30 08:47:47;;;;;;;8.90;8.50;;;15.50;94.90;;;;;;4874166;29;20029;-77
2022/10/30 08:50:13;;;;;;;;;;;15.50;94.50;;;;;;4875060;29;20041;-77
2022/10/30 08:52:38;;;;;;;7.95;7.55;;;15.40;94.50;;;;;;4874391;29;19922;-77
2022/10/30 08:55:05;;;;;;;7.50;7.10;;;15.30;94.40;;;;;;4873723;29;20414;-77
2022/10/30 08:57:35;;;;;;;6.68;6.28;;;15.20;94.60;;;;;;4873493;29;20064;-78
2022/10/30 09:00:02;;;;;;;4.20;3.90;;;15.30;94.90;;;;;;4873594;29;20021;-78
2022/10/30 09:02:28;;;;;;;3.03;2.83;;;15.70;95.70;;;;;;4873471;29;20045;-77
2022/10/30 09:04:54;;;;;;;2.88;2.67;;;16.50;96.30;;;;;;4856813;29;20041;-77
2022/10/30 09:07:19;;;;;;;1.60;1.50;;;17.50;96.30;;;;;;4873425;29;20037;-78
2022/10/30 09:09:45;;;;;;;;;;;18.30;96.30;;;;;;4873769;29;20043;-78
2022/10/30 09:12:11;;;;;;;0.60;0.60;;;19.30;96.10;;;;;;4873420;29;20187;-78
2022/10/30 09:14:36;;;;;;;;;;;20.00;96.00;;;;;;4856904;29;20029;-77
2022/10/30 09:17:02;;;;;;;0.20;0.20;;;20.70;95.60;;;;;;4856810;29;19916;-77
2022/10/30 09:19:27;;;;;;;;;;;21.00;95.20;;;;;;4857120;29;20504;-78
2022/10/30 09:21:53;;;;;;;0.30;0.30;;;21.30;95.10;;;;;;4872989;29;19916;-78
2022/10/30 09:24:19;;;;;;;;;;;21.30;95.00;;;;;;4873501;29;20029;-74
2022/10/30 09:26:45;;;;;;;0.10;0.10;;;21.70;95.40;;;;;;4873094;29;20609;-74
2022/10/30 09:29:10;;;;;;;0.10;0.10;;;21.80;94.70;;;;;;4872497;29;20037;-74
2022/10/30 09:31:36;;;;;;;0.10;0.10;;;21.80;94.70;;;;;;4872435;29;20036;-74
2022/10/30 09:34:02;;;;;;;;;;;22.00;95.10;;;;;;4856904;29;20033;-74
2022/10/30 09:36:28;;;;;;;0.10;0.10;;;22.20;95.10;;;;;;4873296;29;19987;-74
2022/10/30 09:38:54;;;;;;;0.10;0.10;;;22.40;95.20;;;;;;4873114;29;20037;-77
2022/10/30 09:41:44;;;;;;;0.00;0.00;;;22.70;95.30;;;;;;4873093;29;20036;-77
2022/10/30 09:44:35;;;;;;;0.00;0.00;;;23.10;95.20;;;;;;4873259;29;20025;-78
2022/10/30 09:47:25;;;;;;;0.00;0.00;;;23.40;95.10;;;;;;4873137;29;20025;-76
2022/10/30 09:50:33;;;;;;;0.00;0.00;;;23.80;95.20;;;;;;4873028;29;20696;-77
2022/10/30 09:53:37;;;;;;;0.00;0.00;;;24.00;94.90;;;;;;4845413;29;20494;-77
2022/10/30 09:56:26;;;;;;;0.03;0.03;;;23.90;94.90;;;;;;4872545;29;20028;-77
2022/10/30 09:59:04;;;;;;;0.00;0.00;;;23.50;95.10;;;;;;4873728;29;20037;-77
2022/10/30 10:01:42;;;;;;;0.00;0.00;;;23.70;95.30;;;;;;4876114;29;20040;-77
2022/10/30 10:04:27;;;;;;;0.00;0.00;;;24.00;95.30;;;;;;4876050;29;20397;-77
2022/10/30 10:07:00;;;;;;;0.00;0.00;;;24.00;94.80;;;;;;4876669;29;20060;-77
2022/10/30 10:09:28;;;;;;;0.00;0.00;;;23.70;94.50;;;;;;4876404;29;20064;-77
2022/10/30 10:11:59;;;;;;;0.00;0.00;;;23.20;94.30;;;;;;4876004;29;20029;-77
2022/10/30 10:14:31;;;;;;;0.00;0.00;;;22.80;94.80;;;;;;4876238;29;20023;-78
2022/10/30 10:17:01;;;;;;;0.00;0.00;;;22.80;95.50;;;;;;4875939;29;20121;-77
2022/10/30 10:19:34;;;;;;;0.00;0.00;;;22.90;95.40;;;;;;4875778;29;20033;-77
2022/10/30 10:22:02;;;;;;;0.00;0.00;;;23.00;95.50;;;;;;4875871;29;20057;-77
2022/10/30 10:24:32;;;;;;;0.03;0.03;;;22.70;95.00;;;;;;4875764;29;20085;-77
2022/10/30 10:26:57;;;;;;;0.00;0.00;;;22.10;94.50;;;;;;4876833;29;20056;-77
2022/10/30 10:29:31;;;;;;;;;;;21.50;94.60;;;;;;4876644;29;20032;-77
2022/10/30 10:32:35;;;;;;;0.00;0.00;;;20.90;94.60;;;;;;4875868;29;19968;-76
2022/10/30 10:35:36;;;;;;;0.00;0.00;;;20.30;94.50;;;;;;4865277;29;20049;-77
2022/10/30 10:38:08;;;;;;;0.00;0.00;;;19.60;94.60;;;;;;4844847;29;20421;-75
2022/10/30 10:41:12;;;;;;;0.05;0.05;;;19.30;94.60;;;;;;4875684;29;20029;-77
2022/10/30 10:44:23;;;;;;;0.10;0.10;;;18.90;95.00;;;;;;4845908;29;20146;-76
2022/10/30 10:47:06;;;;;;;0.00;0.00;;;18.80;95.20;;;;;;4875329;29;20029;-77
2022/10/30 10:49:41;;;;;;;0.00;0.00;;;19.00;95.30;;;;;;4875454;29;20029;-77
2022/10/30 10:52:15;;;;;;;0.00;0.00;;;19.10;95.20;;;;;;4875118;29;20048;-77
2022/10/30 10:54:42;;;;;;;0.00;0.00;;;19.10;95.10;;;;;;4875104;29;20025;-77
2022/10/30 10:57:15;;;;;;;0.00;0.00;;;19.10;94.80;;;;;;4874889;29;20454;-77
2022/10/30 10:59:46;;;;;;;0.10;0.10;;;19.00;94.70;;;;;;4874816;29;20036;-77
2022/10/30 11:02:34;;;;;;;0.10;0.10;;;18.90;94.70;;;;;;4874768;29;20355;-77
2022/10/30 11:05:07;;;;;;;0.20;0.20;;;18.80;94.60;;;;;;4874996;29;20374;-77
2022/10/30 11:07:38;;;;;;;0.50;0.50;;;18.60;94.40;;;;;;4874627;29;20104;-77
2022/10/30 11:10:12;;;;;;;0.50;0.50;;;18.60;95.00;;;;;;4873361;29;20061;-77
2022/10/30 11:12:38;;;;;;;0.20;0.20;;;18.90;95.20;;;;;;4874547;29;20405;-77
2022/10/30 11:15:30;;;;;;;0.10;0.10;;;19.40;95.20;;;;;;4857716;29;20037;-77
2022/10/30 11:18:01;;;;;;;0.10;0.10;;;19.60;94.80;;;;;;4874521;29;20085;-78
2022/10/30 11:20:58;;;;;;;0.32;0.32;;;19.40;94.30;;;;;;4874453;29;20040;-77
2022/10/30 11:23:39;;;;;;;0.80;0.80;;;19.00;94.10;;;;;;4874109;29;20052;-77
2022/10/30 11:26:17;;;;;;;1.40;1.30;;;18.60;94.20;;;;;;4874013;29;20056;-77
2022/10/30 11:29:02;;;;;;;2.00;1.88;;;18.20;94.20;;;;;;4874200;29;20321;-77
2022/10/30 11:31:36;;;;;;;2.03;1.90;;;17.80;94.20;;;;;;4856819;29;20504;-77
2022/10/30 11:34:17;;;;;;;2.45;2.25;;;17.50;94.50;;;;;;4856771;29;20043;-77
2022/10/30 11:36:48;;;;;;;2.95;2.75;;;17.40;94.70;;;;;;4874340;29;20153;-77
2022/10/30 11:39:18;;;;;;;4.40;4.10;;;17.30;94.50;;;;;;4874113;29;20033;-77
2022/10/30 11:41:56;;;;;;;4.40;4.10;;;17.20;94.40;;;;;;4874671;29;20426;-77
2022/10/30 11:44:24;;;;;;;;;;;17.10;94.50;;;;;;4874518;29;20079;-77
2022/10/30 11:46:50;;;;;;;4.70;4.40;;;17.00;94.50;;;;;;4857609;29;19915;-77
2022/10/30 11:49:46;;;;;;;4.55;4.25;;;16.90;94.50;;;;;;4857567;29;20040;-78
2022/10/30 11:52:15;;;;;;;4.05;3.75;;;16.80;94.60;;;;;;4873855;29;20053;-78
2022/10/30 11:54:47;;;;;;;3.40;3.10;;;16.80;94.60;;;;;;4874271;29;20025;-78
2022/10/30 11:57:18;;;;;;;2.90;2.70;;;16.90;95.00;;;;;;4856875;29;20404;-78
2022/10/30 11:59:46;;;;;;;2.40;2.20;;;17.30;95.30;;;;;;4874164;29;20040;-78
2022/10/30 12:02:21;;;;;;;2.67;2.47;;;17.60;95.00;;;;;;4874171;29;20026;-78
2022/10/30 12:04:49;;;;;;;1.80;1.70;;;17.90;94.90;;;;;;4875828;29;20518;-78
2022/10/30 12:07:26;;;;;;;0.80;0.80;;;18.50;95.60;;;;;;4857318;29;20031;-77
2022/10/30 12:09:53;;;;;;;0.50;0.50;;;19.40;95.80;;;;;;4873879;29;20025;-74
2022/10/30 12:12:40;;;;;;;0.50;0.50;;;20.00;95.10;;;;;;4857224;29;20041;-75
2022/10/30 12:15:20;;;;;;;0.40;0.40;;;20.10;94.60;;;;;;4874651;29;20442;-75
2022/10/30 12:17:54;;;;;;;0.65;0.65;;;19.80;94.10;;;;;;4873682;29;20477;-74
2022/10/30 12:20:20;;;;;;;0.40;0.40;;;19.60;94.20;;;;;;4873095;29;20678;-74
2022/10/30 12:22:46;;;;;;;0.70;0.70;;;19.30;94.10;;;;;;4855949;29;20445;-73
2022/10/30 12:25:29;;;;;;;0.88;0.88;;;18.90;94.00;;;;;;4873088;29;20037;-74
2022/10/30 12:28:14;;;;;;;1.00;1.00;;;18.50;94.00;;;;;;4872691;29;20041;-75
2022/10/30 12:31:03;;;;;;;0.80;0.80;;;18.20;94.40;;;;;;4856394;29;20029;-74
2022/10/30 12:33:53;;;;;;;0.80;0.80;;;18.20;94.70;;;;;;4856711;29;20366;-75
2022/10/30 12:36:23;;;;;;;0.82;0.82;;;18.20;94.70;;;;;;4873131;29;20040;-75
2022/10/30 12:38:57;;;;;;;0.80;0.80;;;18.20;94.50;;;;;;4873288;29;20028;-75
2022/10/30 12:41:39;;;;;;;0.70;0.70;;;18.10;94.40;;;;;;4873281;29;20032;-75
2022/10/30 12:44:27;;;;;;;0.65;0.65;;;18.30;94.90;;;;;;4856227;29;20028;-75
2022/10/30 12:46:59;;;;;;;0.80;0.80;;;18.70;94.90;;;;;;4873518;29;20431;-75
2022/10/30 12:49:25;;;;;;;0.50;0.50;;;18.70;94.60;;;;;;4856155;29;20052;-75
2022/10/30 12:52:02;;;;;;;0.30;0.30;;;18.90;94.80;;;;;;4872856;29;20064;-75
2022/10/30 12:54:35;;;;;;;0.60;0.60;;;18.80;94.40;;;;;;4872882;29;20057;-75